Spearfish Canyon, South Dakota
Current Conditions -  °F | °C
As of 1:15 AM on Sunday 26 Oct 2014 (Local Time) from KSPF Reporting Station
Clear Clear  
Wind Chill: 55°   Ceiling: Unl
Heat Index: 55°   Visibility: 10mi
Dew Point: 32°   Wind: 5mph
Humidity: 41%   Direction: 140°SE
Pressure: 29.71"   Gusts: NA
Location:  44.253°N, 103.912°W
Report Text: KSPF 260715Z AUTO 14004KT 10SM CLR 13/00 A2971 RMK AO2
Loading
Personal Weather Stations






























Interactive Weather Map
Tropical Storm Tracking
New forecast layout! Learn more

10-Day Weather Forecast

Advertisements
Track Severe Weather on mobile